EZY2830 LGSK-EGGD
Flight info
| Callsign | EZY2830 |
|---|---|
| Flight time | 3h 33m |
| Altitude | 36000 |
| Route | IBIDI UL617 MAKED DCT LONTA UL608 DOLEV DCT PODOB DCT BOSNA DCT OKSIG DCT KOMAR DCT KUSIB DCT GORPA DCT ERKIR L608 LIRSU DCT SPI DCT BUB L608 DENUT L610 KOPUL Q63 ICTAM L179 SAWPE |
| Aircraft | A320/M-SDE2E3FGHIJ1RWXYZ/LB1 |
Departure
| Time | 2026-04-25 13:03 |
|---|---|
| Airport | Skiathos Island National Airport (LGSK) |
Arrival
| Time | 2026-04-25 16:37 |
|---|---|
| Airport | Bristol Airport (EGGD) |
| Time | Latitude | Longitude | Altitude | Speed | Heading |
|---|---|---|---|---|---|
| 2026-04-25 12:27 | 39.17832 | 23.50190 | 49 ft | 0 kts | 288° |
| 2026-04-25 12:55 | 39.17830 | 23.50197 | 48 ft | 4 kts | 288° |
| 2026-04-25 12:55 | 39.17824 | 23.50219 | 44 ft | 3 kts | 288° |
| 2026-04-25 12:55 | 39.17823 | 23.50225 | 42 ft | 0 kts | 288° |
| 2026-04-25 12:55 | 39.17822 | 23.50229 | 41 ft | 3 kts | 288° |
| 2026-04-25 12:56 | 39.17816 | 23.50252 | 39 ft | 3 kts | 263° |
| 2026-04-25 12:56 | 39.17820 | 23.50275 | 37 ft | 3 kts | 226° |
| 2026-04-25 12:56 | 39.17827 | 23.50283 | 37 ft | 0 kts | 187° |
| 2026-04-25 12:58 | 39.17819 | 23.50282 | 37 ft | 1 kts | 189° |
| 2026-04-25 12:58 | 39.17808 | 23.50278 | 39 ft | 2 kts | 194° |
| 2026-04-25 12:58 | 39.17787 | 23.50270 | 41 ft | 5 kts | 197° |
| 2026-04-25 12:59 | 39.17744 | 23.50254 | 40 ft | 8 kts | 192° |
| 2026-04-25 12:59 | 39.17731 | 23.50254 | 39 ft | 0 kts | 175° |
| 2026-04-25 12:59 | 39.17715 | 23.50271 | 39 ft | 7 kts | 124° |
| 2026-04-25 13:00 | 39.17698 | 23.50318 | 40 ft | 10 kts | 122° |
| 2026-04-25 13:00 | 39.17650 | 23.50329 | 40 ft | 13 kts | 191° |
| 2026-04-25 13:00 | 39.17462 | 23.50248 | 33 ft | 21 kts | 199° |
| 2026-04-25 13:00 | 39.17315 | 23.50182 | 30 ft | 20 kts | 199° |
| 2026-04-25 13:01 | 39.17173 | 23.50118 | 21 ft | 18 kts | 199° |
| 2026-04-25 13:01 | 39.17079 | 23.50080 | 19 ft | 8 kts | 194° |
| 2026-04-25 13:01 | 39.17050 | 23.50088 | 19 ft | 3 kts | 156° |
| 2026-04-25 13:01 | 39.17024 | 23.50085 | 16 ft | 4 kts | 207° |
| 2026-04-25 13:02 | 39.17029 | 23.50053 | 16 ft | 4 kts | 325° |
| 2026-04-25 13:02 | 39.17042 | 23.50054 | 17 ft | 0 kts | 15° |
| 2026-04-25 13:03 | 39.17067 | 23.50064 | 20 ft | 26 kts | 19° |
| 2026-04-25 13:03 | 39.17498 | 23.50263 | 34 ft | 103 kts | 19° |
| 2026-04-25 13:03 | 39.18391 | 23.50653 | 95 ft | 161 kts | 18° |
| 2026-04-25 13:03 | 39.19437 | 23.51085 | 939 ft | 156 kts | 19° |
| 2026-04-25 13:04 | 39.20424 | 23.51532 | 1734 ft | 147 kts | 20° |
| 2026-04-25 13:04 | 39.21409 | 23.51970 | 2224 ft | 153 kts | 20° |
| 2026-04-25 13:04 | 39.22425 | 23.52421 | 2733 ft | 155 kts | 21° |
| 2026-04-25 13:04 | 39.23449 | 23.52886 | 3273 ft | 157 kts | 20° |
| 2026-04-25 13:05 | 39.24533 | 23.53375 | 3553 ft | 175 kts | 20° |
| 2026-04-25 13:05 | 39.25758 | 23.53928 | 3736 ft | 198 kts | 20° |
| 2026-04-25 13:05 | 39.27125 | 23.54549 | 3992 ft | 217 kts | 20° |
| 2026-04-25 13:05 | 39.28586 | 23.55213 | 4558 ft | 225 kts | 20° |
| 2026-04-25 13:06 | 39.30059 | 23.55870 | 5262 ft | 229 kts | 20° |
| 2026-04-25 13:06 | 39.31640 | 23.56207 | 5943 ft | 236 kts | 355° |
| 2026-04-25 13:06 | 39.33225 | 23.55567 | 6659 ft | 242 kts | 338° |
| 2026-04-25 13:06 | 39.34758 | 23.54622 | 7353 ft | 246 kts | 336° |
| 2026-04-25 13:07 | 39.36363 | 23.53610 | 7695 ft | 269 kts | 336° |
| 2026-04-25 13:07 | 39.38086 | 23.52515 | 8196 ft | 281 kts | 336° |
| 2026-04-25 13:07 | 39.39855 | 23.51381 | 8918 ft | 286 kts | 335° |
| 2026-04-25 13:07 | 39.41627 | 23.50251 | 9661 ft | 290 kts | 338° |
| 2026-04-25 13:08 | 39.43517 | 23.49303 | 10267 ft | 298 kts | 341° |
| 2026-04-25 13:08 | 39.45539 | 23.48329 | 10462 ft | 322 kts | 341° |
| 2026-04-25 13:08 | 39.47697 | 23.47296 | 10813 ft | 337 kts | 341° |
| 2026-04-25 13:08 | 39.49914 | 23.46230 | 11444 ft | 342 kts | 341° |
| 2026-04-25 13:09 | 39.52158 | 23.45143 | 12129 ft | 346 kts | 341° |
| 2026-04-25 13:09 | 39.54420 | 23.44042 | 12820 ft | 349 kts | 341° |
| 2026-04-25 13:09 | 39.56707 | 23.42927 | 13502 ft | 352 kts | 341° |
| 2026-04-25 13:09 | 39.59011 | 23.41805 | 14156 ft | 355 kts | 341° |
| 2026-04-25 13:10 | 39.61330 | 23.40676 | 14762 ft | 358 kts | 341° |
| 2026-04-25 13:10 | 39.63637 | 23.39552 | 15350 ft | 361 kts | 341° |
| 2026-04-25 13:10 | 39.65998 | 23.38404 | 15942 ft | 364 kts | 341° |
| 2026-04-25 13:10 | 39.68375 | 23.37247 | 16530 ft | 367 kts | 341° |
| 2026-04-25 13:11 | 39.70773 | 23.36077 | 17113 ft | 370 kts | 341° |
| 2026-04-25 13:11 | 39.73191 | 23.34896 | 17684 ft | 373 kts | 341° |
| 2026-04-25 13:11 | 39.75632 | 23.33706 | 18251 ft | 376 kts | 341° |
| 2026-04-25 13:11 | 39.78089 | 23.32505 | 18735 ft | 379 kts | 341° |
| 2026-04-25 13:12 | 39.80568 | 23.31290 | 19242 ft | 381 kts | 341° |
| 2026-04-25 13:12 | 39.83057 | 23.30069 | 19728 ft | 384 kts | 341° |
| 2026-04-25 13:12 | 39.85531 | 23.28854 | 20222 ft | 386 kts | 341° |
| 2026-04-25 13:12 | 39.86383 | 23.28436 | 20380 ft | 387 kts | 341° |
| 2026-04-25 13:13 | 39.90592 | 23.26369 | 21157 ft | 391 kts | 342° |
| 2026-04-25 13:13 | 39.93149 | 23.25115 | 21626 ft | 394 kts | 342° |
| 2026-04-25 13:13 | 39.95725 | 23.23854 | 22086 ft | 397 kts | 342° |
| 2026-04-25 13:13 | 39.98316 | 23.22580 | 22539 ft | 399 kts | 342° |
| 2026-04-25 13:14 | 40.00918 | 23.21296 | 22988 ft | 402 kts | 342° |
| 2026-04-25 13:14 | 40.03541 | 23.20001 | 23434 ft | 404 kts | 342° |
| 2026-04-25 13:14 | 40.06174 | 23.18701 | 23833 ft | 406 kts | 342° |
| 2026-04-25 13:14 | 40.08792 | 23.17409 | 24206 ft | 408 kts | 342° |
| 2026-04-25 13:15 | 40.11454 | 23.16093 | 24594 ft | 410 kts | 342° |
| 2026-04-25 13:15 | 40.14123 | 23.14776 | 24980 ft | 411 kts | 342° |
| 2026-04-25 13:15 | 40.16807 | 23.13451 | 25340 ft | 413 kts | 342° |
| 2026-04-25 13:15 | 40.19504 | 23.12118 | 25719 ft | 415 kts | 342° |
| 2026-04-25 13:16 | 40.22210 | 23.10781 | 26073 ft | 417 kts | 342° |
| 2026-04-25 13:16 | 40.24925 | 23.09437 | 26421 ft | 418 kts | 342° |
| 2026-04-25 13:16 | 40.27655 | 23.08081 | 26785 ft | 420 kts | 342° |
| 2026-04-25 13:16 | 40.30355 | 23.06738 | 27129 ft | 422 kts | 342° |
| 2026-04-25 13:17 | 40.33101 | 23.05369 | 27477 ft | 423 kts | 342° |
| 2026-04-25 13:17 | 40.35860 | 23.03993 | 27825 ft | 425 kts | 342° |
| 2026-04-25 13:17 | 40.38631 | 23.02609 | 28164 ft | 427 kts | 342° |
| 2026-04-25 13:17 | 40.41413 | 23.01221 | 28502 ft | 429 kts | 342° |
| 2026-04-25 13:18 | 40.44206 | 22.99832 | 28823 ft | 430 kts | 342° |
| 2026-04-25 13:18 | 40.46951 | 22.98231 | 29141 ft | 435 kts | 335° |
| 2026-04-25 13:18 | 40.48723 | 22.96998 | 29346 ft | 436 kts | 335° |
| 2026-04-25 13:18 | 40.51409 | 22.95121 | 29656 ft | 438 kts | 335° |
| 2026-04-25 13:19 | 40.54098 | 22.93234 | 29948 ft | 440 kts | 335° |
| 2026-04-25 13:19 | 40.57682 | 22.90717 | 30279 ft | 442 kts | 335° |
| 2026-04-25 13:19 | 40.60395 | 22.88813 | 30534 ft | 443 kts | 335° |
| 2026-04-25 13:19 | 40.61315 | 22.88167 | 30646 ft | 443 kts | 335° |
| 2026-04-25 13:20 | 40.65821 | 22.85001 | 31247 ft | 440 kts | 335° |
| 2026-04-25 13:20 | 40.67607 | 22.83746 | 31466 ft | 439 kts | 335° |
| 2026-04-25 13:20 | 40.70298 | 22.81854 | 31811 ft | 438 kts | 335° |
| 2026-04-25 13:20 | 40.72985 | 22.79967 | 32164 ft | 436 kts | 335° |
| 2026-04-25 13:21 | 40.75658 | 22.78085 | 32516 ft | 435 kts | 335° |
| 2026-04-25 13:21 | 40.79187 | 22.75595 | 32956 ft | 434 kts | 335° |
| 2026-04-25 13:21 | 40.81844 | 22.73718 | 33285 ft | 433 kts | 335° |
| 2026-04-25 13:21 | 40.84496 | 22.71841 | 33623 ft | 432 kts | 336° |
| 2026-04-25 13:22 | 40.87140 | 22.69970 | 33941 ft | 431 kts | 336° |
| 2026-04-25 13:22 | 40.88892 | 22.68730 | 34007 ft | 430 kts | 336° |
| 2026-04-25 13:23 | 40.96706 | 22.63195 | 34029 ft | 422 kts | 335° |
| 2026-04-25 13:23 | 41.02712 | 22.58938 | 34033 ft | 421 kts | 335° |
| 2026-04-25 13:24 | 41.07000 | 22.55880 | 34035 ft | 421 kts | 335° |
| 2026-04-25 13:24 | 41.12146 | 22.52174 | 34035 ft | 422 kts | 332° |
| 2026-04-25 13:25 | 41.16864 | 22.47449 | 34033 ft | 426 kts | 325° |
| 2026-04-25 13:25 | 41.22240 | 22.41730 | 34029 ft | 426 kts | 325° |
| 2026-04-25 13:26 | 41.26104 | 22.37598 | 34035 ft | 425 kts | 325° |
| 2026-04-25 13:26 | 41.30677 | 22.32692 | 34045 ft | 425 kts | 325° |
| 2026-04-25 13:27 | 41.35279 | 22.27752 | 34052 ft | 425 kts | 325° |
| 2026-04-25 13:27 | 41.39882 | 22.22816 | 34051 ft | 425 kts | 325° |
| 2026-04-25 13:28 | 41.44474 | 22.17878 | 34043 ft | 424 kts | 324° |
| 2026-04-25 13:28 | 41.49032 | 22.12965 | 34040 ft | 424 kts | 324° |
| 2026-04-25 13:29 | 41.53613 | 22.08012 | 34045 ft | 423 kts | 324° |
| 2026-04-25 13:29 | 41.58185 | 22.03066 | 34047 ft | 423 kts | 324° |
| 2026-04-25 13:30 | 41.65036 | 21.95623 | 34044 ft | 423 kts | 324° |
| 2026-04-25 13:31 | 41.71852 | 21.88220 | 34050 ft | 422 kts | 324° |
| 2026-04-25 13:31 | 41.76405 | 21.83259 | 34049 ft | 422 kts | 324° |
| 2026-04-25 13:32 | 41.80948 | 21.78289 | 34033 ft | 421 kts | 324° |
| 2026-04-25 13:32 | 41.83230 | 21.75787 | 34144 ft | 425 kts | 324° |
| 2026-04-25 13:32 | 41.85516 | 21.73275 | 34374 ft | 425 kts | 324° |
| 2026-04-25 13:32 | 41.87808 | 21.70758 | 34631 ft | 425 kts | 324° |
| 2026-04-25 13:33 | 41.90068 | 21.68278 | 34883 ft | 425 kts | 324° |
| 2026-04-25 13:33 | 41.92359 | 21.65769 | 35132 ft | 425 kts | 324° |
| 2026-04-25 13:33 | 41.94647 | 21.63260 | 35375 ft | 425 kts | 323° |
| 2026-04-25 13:33 | 41.96187 | 21.61566 | 35575 ft | 423 kts | 323° |
| 2026-04-25 13:34 | 41.99198 | 21.58244 | 35905 ft | 423 kts | 323° |
| 2026-04-25 13:34 | 42.01471 | 21.55732 | 36020 ft | 423 kts | 323° |
| 2026-04-25 13:34 | 42.03743 | 21.53223 | 36041 ft | 423 kts | 323° |
| 2026-04-25 13:35 | 42.08283 | 21.48199 | 36041 ft | 422 kts | 323° |
| 2026-04-25 13:35 | 42.12793 | 21.43206 | 36043 ft | 422 kts | 323° |
| 2026-04-25 13:36 | 42.17133 | 21.37863 | 36050 ft | 426 kts | 313° |
| 2026-04-25 13:36 | 42.20966 | 21.31763 | 36055 ft | 426 kts | 313° |
| 2026-04-25 13:37 | 42.24803 | 21.25670 | 36071 ft | 426 kts | 313° |
| 2026-04-25 13:37 | 42.28611 | 21.19629 | 36071 ft | 425 kts | 313° |
| 2026-04-25 13:38 | 42.32435 | 21.13539 | 36067 ft | 425 kts | 313° |
| 2026-04-25 13:38 | 42.36253 | 21.07446 | 36067 ft | 424 kts | 313° |
| 2026-04-25 13:39 | 42.40061 | 21.01358 | 36070 ft | 424 kts | 313° |
| 2026-04-25 13:39 | 42.43864 | 20.95261 | 36071 ft | 424 kts | 313° |
| 2026-04-25 13:40 | 42.47631 | 20.89204 | 36072 ft | 423 kts | 313° |
| 2026-04-25 13:40 | 42.51417 | 20.83098 | 36076 ft | 423 kts | 313° |
| 2026-04-25 13:41 | 42.55198 | 20.77002 | 36064 ft | 422 kts | 312° |
| 2026-04-25 13:41 | 42.58975 | 20.70903 | 36070 ft | 422 kts | 312° |
| 2026-04-25 13:42 | 42.62745 | 20.64794 | 36076 ft | 422 kts | 312° |
| 2026-04-25 13:42 | 42.66483 | 20.58720 | 36071 ft | 422 kts | 312° |
| 2026-04-25 13:43 | 42.70240 | 20.52597 | 36063 ft | 422 kts | 312° |
| 2026-04-25 13:43 | 42.74003 | 20.46475 | 36054 ft | 422 kts | 312° |
| 2026-04-25 13:44 | 42.77761 | 20.40347 | 36061 ft | 421 kts | 311° |
| 2026-04-25 13:44 | 42.81479 | 20.34261 | 36071 ft | 421 kts | 311° |
| 2026-04-25 13:45 | 42.85228 | 20.28126 | 36059 ft | 421 kts | 311° |
| 2026-04-25 13:45 | 42.88965 | 20.21982 | 36069 ft | 421 kts | 311° |
| 2026-04-25 13:46 | 42.92700 | 20.15834 | 36068 ft | 421 kts | 311° |
| 2026-04-25 13:46 | 42.96404 | 20.09718 | 36062 ft | 421 kts | 311° |
| 2026-04-25 13:47 | 43.00127 | 20.03561 | 36057 ft | 421 kts | 311° |
| 2026-04-25 13:47 | 43.03853 | 19.97393 | 36066 ft | 421 kts | 311° |
| 2026-04-25 13:48 | 43.07576 | 19.91215 | 36059 ft | 421 kts | 311° |
| 2026-04-25 13:48 | 43.11291 | 19.85030 | 36056 ft | 421 kts | 311° |
| 2026-04-25 13:49 | 43.14977 | 19.78880 | 36045 ft | 421 kts | 310° |
| 2026-04-25 13:49 | 43.18679 | 19.72677 | 36061 ft | 421 kts | 311° |
| 2026-04-25 13:50 | 43.22388 | 19.66470 | 36052 ft | 421 kts | 311° |
| 2026-04-25 13:50 | 43.26093 | 19.60268 | 36061 ft | 421 kts | 311° |
| 2026-04-25 13:51 | 43.29779 | 19.54092 | 36065 ft | 421 kts | 310° |
| 2026-04-25 13:51 | 43.33470 | 19.47863 | 36064 ft | 420 kts | 310° |
| 2026-04-25 13:52 | 43.37151 | 19.41629 | 36067 ft | 420 kts | 310° |
| 2026-04-25 13:52 | 43.40837 | 19.35394 | 36066 ft | 420 kts | 310° |
| 2026-04-25 13:53 | 43.44526 | 19.29146 | 36068 ft | 420 kts | 310° |
| 2026-04-25 13:53 | 43.48181 | 19.22936 | 36067 ft | 420 kts | 310° |
| 2026-04-25 13:54 | 43.51859 | 19.16671 | 36055 ft | 421 kts | 310° |
| 2026-04-25 13:54 | 43.55570 | 19.10439 | 36054 ft | 421 kts | 311° |
| 2026-04-25 13:55 | 43.59381 | 19.04325 | 36065 ft | 420 kts | 311° |
| 2026-04-25 13:55 | 43.63176 | 18.98261 | 36062 ft | 420 kts | 311° |
| 2026-04-25 13:56 | 43.66968 | 18.92132 | 36054 ft | 420 kts | 310° |
| 2026-04-25 13:56 | 43.70740 | 18.85979 | 36056 ft | 419 kts | 310° |
| 2026-04-25 13:57 | 43.74510 | 18.79827 | 36058 ft | 419 kts | 310° |
| 2026-04-25 13:57 | 43.78254 | 18.73717 | 36055 ft | 419 kts | 310° |
| 2026-04-25 13:58 | 43.82022 | 18.67563 | 36052 ft | 419 kts | 310° |
| 2026-04-25 13:58 | 43.85784 | 18.61394 | 36054 ft | 419 kts | 310° |
| 2026-04-25 13:59 | 43.89539 | 18.55222 | 36054 ft | 418 kts | 310° |
| 2026-04-25 13:59 | 43.93284 | 18.49056 | 36052 ft | 418 kts | 310° |
| 2026-04-25 14:00 | 43.96391 | 18.43930 | 36047 ft | 418 kts | 310° |
| 2026-04-25 14:00 | 44.00729 | 18.36751 | 36050 ft | 417 kts | 310° |
| 2026-04-25 14:01 | 44.04457 | 18.30568 | 36054 ft | 417 kts | 310° |
| 2026-04-25 14:01 | 44.08186 | 18.24384 | 36052 ft | 417 kts | 310° |
| 2026-04-25 14:02 | 44.11906 | 18.18191 | 36063 ft | 417 kts | 309° |
| 2026-04-25 14:02 | 44.15588 | 18.12034 | 36065 ft | 416 kts | 309° |
| 2026-04-25 14:03 | 44.19288 | 18.05849 | 36052 ft | 416 kts | 309° |
| 2026-04-25 14:03 | 44.22989 | 17.99657 | 36052 ft | 415 kts | 309° |
| 2026-04-25 14:04 | 44.26680 | 17.93458 | 36049 ft | 415 kts | 309° |
| 2026-04-25 14:04 | 44.30369 | 17.87249 | 36045 ft | 415 kts | 309° |
| 2026-04-25 14:05 | 44.34032 | 17.81084 | 36044 ft | 415 kts | 309° |
| 2026-04-25 14:05 | 44.37717 | 17.74862 | 36047 ft | 415 kts | 309° |
| 2026-04-25 14:06 | 44.41481 | 17.68737 | 36050 ft | 415 kts | 310° |
| 2026-04-25 14:06 | 44.45299 | 17.62686 | 36050 ft | 415 kts | 310° |
| 2026-04-25 14:07 | 44.49075 | 17.56658 | 36047 ft | 414 kts | 310° |
| 2026-04-25 14:07 | 44.52850 | 17.50571 | 36041 ft | 414 kts | 310° |
| 2026-04-25 14:08 | 44.56624 | 17.44464 | 36040 ft | 414 kts | 310° |
| 2026-04-25 14:08 | 44.60395 | 17.38358 | 36036 ft | 414 kts | 309° |
| 2026-04-25 14:09 | 44.64165 | 17.32235 | 36043 ft | 414 kts | 309° |
| 2026-04-25 14:09 | 44.67896 | 17.26153 | 36038 ft | 414 kts | 309° |
| 2026-04-25 14:10 | 44.71649 | 17.20029 | 36025 ft | 413 kts | 309° |
| 2026-04-25 14:10 | 44.75399 | 17.13894 | 36007 ft | 413 kts | 309° |
| 2026-04-25 14:11 | 44.79145 | 17.07759 | 36020 ft | 413 kts | 309° |
| 2026-04-25 14:11 | 44.82862 | 17.01654 | 36020 ft | 413 kts | 309° |
| 2026-04-25 14:12 | 44.86605 | 16.95508 | 36020 ft | 413 kts | 309° |
| 2026-04-25 14:12 | 44.90359 | 16.89368 | 36022 ft | 413 kts | 309° |
| 2026-04-25 14:13 | 44.94102 | 16.83223 | 36035 ft | 413 kts | 308° |
| 2026-04-25 14:13 | 44.97806 | 16.77043 | 36023 ft | 412 kts | 307° |
| 2026-04-25 14:14 | 45.01378 | 16.70798 | 36032 ft | 411 kts | 307° |
| 2026-04-25 14:14 | 45.04944 | 16.64483 | 36011 ft | 411 kts | 306° |
| 2026-04-25 14:15 | 45.08519 | 16.58175 | 36006 ft | 411 kts | 307° |
| 2026-04-25 14:15 | 45.12092 | 16.51923 | 36019 ft | 411 kts | 307° |
| 2026-04-25 14:16 | 45.15681 | 16.45621 | 36005 ft | 411 kts | 307° |
| 2026-04-25 14:16 | 45.19273 | 16.39312 | 36019 ft | 411 kts | 307° |
| 2026-04-25 14:17 | 45.22856 | 16.33008 | 36014 ft | 410 kts | 306° |
| 2026-04-25 14:17 | 45.26429 | 16.26698 | 36014 ft | 410 kts | 306° |
| 2026-04-25 14:18 | 45.29975 | 16.20423 | 36020 ft | 410 kts | 306° |
| 2026-04-25 14:18 | 45.33537 | 16.14090 | 36015 ft | 410 kts | 306° |
| 2026-04-25 14:19 | 45.37098 | 16.07762 | 36015 ft | 410 kts | 306° |
| 2026-04-25 14:19 | 45.40663 | 16.01430 | 36010 ft | 410 kts | 306° |
| 2026-04-25 14:20 | 45.44224 | 15.95088 | 36009 ft | 410 kts | 306° |
| 2026-04-25 14:20 | 45.47729 | 15.88817 | 36022 ft | 409 kts | 306° |
| 2026-04-25 14:21 | 45.51264 | 15.82462 | 36011 ft | 409 kts | 306° |
| 2026-04-25 14:21 | 45.54799 | 15.76107 | 36011 ft | 408 kts | 306° |
| 2026-04-25 14:22 | 45.58305 | 15.69800 | 35995 ft | 408 kts | 306° |
| 2026-04-25 14:22 | 45.61827 | 15.63434 | 36000 ft | 409 kts | 306° |
| 2026-04-25 14:23 | 45.65347 | 15.57063 | 35996 ft | 409 kts | 305° |
| 2026-04-25 14:23 | 45.68867 | 15.50674 | 35993 ft | 409 kts | 305° |
| 2026-04-25 14:24 | 45.72385 | 15.44285 | 35992 ft | 409 kts | 305° |
| 2026-04-25 14:24 | 45.75874 | 15.37927 | 35989 ft | 409 kts | 305° |
| 2026-04-25 14:25 | 45.78228 | 15.33644 | 35984 ft | 409 kts | 306° |
| 2026-04-25 14:25 | 45.82961 | 15.25171 | 35990 ft | 409 kts | 306° |
| 2026-04-25 14:26 | 45.86525 | 15.18810 | 35987 ft | 409 kts | 306° |
| 2026-04-25 14:26 | 45.90051 | 15.12480 | 35994 ft | 409 kts | 306° |
| 2026-04-25 14:27 | 45.93596 | 15.06092 | 35995 ft | 409 kts | 306° |
| 2026-04-25 14:27 | 45.97133 | 14.99689 | 35993 ft | 409 kts | 305° |
| 2026-04-25 14:28 | 46.00665 | 14.93278 | 36002 ft | 408 kts | 305° |
| 2026-04-25 14:28 | 46.04195 | 14.86878 | 36008 ft | 408 kts | 305° |
| 2026-04-25 14:29 | 46.07699 | 14.80525 | 35998 ft | 408 kts | 305° |
| 2026-04-25 14:29 | 46.11216 | 14.74114 | 35992 ft | 408 kts | 305° |
| 2026-04-25 14:30 | 46.14729 | 14.67695 | 35994 ft | 408 kts | 305° |
| 2026-04-25 14:30 | 46.19989 | 14.58049 | 35991 ft | 408 kts | 305° |
| 2026-04-25 14:31 | 46.23469 | 14.51653 | 35987 ft | 408 kts | 305° |
| 2026-04-25 14:31 | 46.26968 | 14.45207 | 35995 ft | 407 kts | 304° |
| 2026-04-25 14:32 | 46.30456 | 14.38763 | 35998 ft | 407 kts | 304° |
| 2026-04-25 14:32 | 46.33942 | 14.32314 | 35998 ft | 407 kts | 304° |
| 2026-04-25 14:33 | 46.37397 | 14.25908 | 36004 ft | 406 kts | 304° |
| 2026-04-25 14:33 | 46.40869 | 14.19446 | 36010 ft | 406 kts | 304° |
| 2026-04-25 14:34 | 46.44336 | 14.12977 | 36007 ft | 406 kts | 304° |
| 2026-04-25 14:34 | 46.47801 | 14.06502 | 36007 ft | 406 kts | 304° |
| 2026-04-25 14:35 | 46.51265 | 14.00020 | 36018 ft | 406 kts | 304° |
| 2026-04-25 14:35 | 46.54696 | 13.93587 | 36027 ft | 406 kts | 304° |
| 2026-04-25 14:36 | 46.58153 | 13.87096 | 36024 ft | 406 kts | 304° |
| 2026-04-25 14:36 | 46.61606 | 13.80597 | 36018 ft | 406 kts | 304° |
| 2026-04-25 14:37 | 46.65049 | 13.74082 | 36012 ft | 406 kts | 304° |
| 2026-04-25 14:37 | 46.68464 | 13.67599 | 36013 ft | 406 kts | 304° |
| 2026-04-25 14:38 | 46.71910 | 13.61060 | 36011 ft | 407 kts | 304° |
| 2026-04-25 14:38 | 46.75356 | 13.54511 | 36017 ft | 407 kts | 304° |
| 2026-04-25 14:39 | 46.78793 | 13.47956 | 36025 ft | 407 kts | 304° |
| 2026-04-25 14:39 | 46.82198 | 13.41423 | 36044 ft | 407 kts | 303° |
| 2026-04-25 14:40 | 46.85626 | 13.34849 | 36044 ft | 407 kts | 304° |
| 2026-04-25 14:40 | 46.89058 | 13.28268 | 36042 ft | 407 kts | 303° |
| 2026-04-25 14:41 | 46.92476 | 13.21680 | 36042 ft | 407 kts | 303° |
| 2026-04-25 14:41 | 46.95894 | 13.15080 | 36037 ft | 407 kts | 303° |
| 2026-04-25 14:42 | 46.98733 | 13.09584 | 36041 ft | 407 kts | 303° |
| 2026-04-25 14:42 | 47.02702 | 13.01886 | 36038 ft | 408 kts | 303° |
| 2026-04-25 14:43 | 47.06118 | 12.95251 | 36038 ft | 407 kts | 303° |
| 2026-04-25 14:43 | 47.09530 | 12.88606 | 36061 ft | 407 kts | 303° |
| 2026-04-25 14:44 | 47.12930 | 12.81957 | 36045 ft | 407 kts | 303° |
| 2026-04-25 14:44 | 47.16331 | 12.75295 | 36049 ft | 408 kts | 303° |
| 2026-04-25 14:45 | 47.19712 | 12.68668 | 36073 ft | 407 kts | 303° |
| 2026-04-25 14:45 | 47.23106 | 12.62000 | 36065 ft | 407 kts | 303° |
| 2026-04-25 14:46 | 47.26498 | 12.55318 | 36055 ft | 407 kts | 303° |
| 2026-04-25 14:46 | 47.29882 | 12.48626 | 36063 ft | 408 kts | 303° |
| 2026-04-25 14:47 | 47.32693 | 12.43045 | 36056 ft | 408 kts | 303° |
| 2026-04-25 14:47 | 47.36623 | 12.35220 | 36062 ft | 409 kts | 303° |
| 2026-04-25 14:48 | 47.40012 | 12.28472 | 36060 ft | 409 kts | 303° |
| 2026-04-25 14:48 | 47.43399 | 12.21716 | 36059 ft | 409 kts | 303° |
| 2026-04-25 14:49 | 47.46756 | 12.14994 | 36059 ft | 409 kts | 303° |
| 2026-04-25 14:49 | 47.50131 | 12.08219 | 36050 ft | 409 kts | 303° |
| 2026-04-25 14:50 | 47.53244 | 12.01223 | 36045 ft | 405 kts | 292° |
| 2026-04-25 14:50 | 47.54837 | 11.93331 | 36044 ft | 400 kts | 279° |
| 2026-04-25 14:51 | 47.55960 | 11.85252 | 36041 ft | 400 kts | 280° |
| 2026-04-25 14:51 | 47.57096 | 11.77173 | 36045 ft | 401 kts | 280° |
| 2026-04-25 14:52 | 47.58220 | 11.69117 | 36027 ft | 403 kts | 280° |
| 2026-04-25 14:52 | 47.59160 | 11.62351 | 36020 ft | 404 kts | 280° |
| 2026-04-25 14:53 | 47.60472 | 11.52802 | 36028 ft | 405 kts | 280° |
| 2026-04-25 14:53 | 47.61587 | 11.44610 | 36037 ft | 406 kts | 280° |
| 2026-04-25 14:54 | 47.62679 | 11.36464 | 36043 ft | 406 kts | 280° |
| 2026-04-25 14:54 | 47.63687 | 11.28211 | 36037 ft | 408 kts | 279° |
| 2026-04-25 14:55 | 47.64662 | 11.19901 | 36041 ft | 410 kts | 279° |
| 2026-04-25 14:55 | 47.65651 | 11.11565 | 36054 ft | 411 kts | 279° |
| 2026-04-25 14:56 | 47.66655 | 11.03214 | 36062 ft | 412 kts | 279° |
| 2026-04-25 14:56 | 47.67644 | 10.94902 | 36081 ft | 412 kts | 280° |
| 2026-04-25 14:57 | 47.68635 | 10.86504 | 36070 ft | 414 kts | 280° |
| 2026-04-25 14:57 | 47.69628 | 10.78056 | 36084 ft | 416 kts | 280° |
| 2026-04-25 14:58 | 47.70615 | 10.69583 | 36091 ft | 417 kts | 280° |
| 2026-04-25 14:58 | 47.71599 | 10.61096 | 36097 ft | 418 kts | 280° |
| 2026-04-25 14:59 | 47.72566 | 10.52649 | 36095 ft | 418 kts | 281° |
| 2026-04-25 14:59 | 47.73537 | 10.44131 | 36096 ft | 418 kts | 282° |
| 2026-04-25 15:00 | 47.75415 | 10.36038 | 36098 ft | 414 kts | 301° |
| 2026-04-25 15:00 | 47.79061 | 10.29510 | 36100 ft | 412 kts | 321° |
| 2026-04-25 15:01 | 47.83468 | 10.24158 | 36092 ft | 412 kts | 321° |
| 2026-04-25 15:01 | 47.87902 | 10.18753 | 36081 ft | 412 kts | 321° |
| 2026-04-25 15:02 | 47.92329 | 10.13325 | 36088 ft | 412 kts | 321° |
| 2026-04-25 15:02 | 47.96753 | 10.07893 | 36092 ft | 412 kts | 321° |
| 2026-04-25 15:03 | 48.01175 | 10.02460 | 36101 ft | 412 kts | 320° |
| 2026-04-25 15:03 | 48.05562 | 9.97049 | 36099 ft | 412 kts | 320° |
| 2026-04-25 15:04 | 48.09976 | 9.91594 | 36096 ft | 412 kts | 320° |
| 2026-04-25 15:04 | 48.14390 | 9.86131 | 36099 ft | 412 kts | 320° |
| 2026-04-25 15:05 | 48.18798 | 9.80663 | 36092 ft | 411 kts | 320° |
| 2026-04-25 15:06 | 48.25372 | 9.72479 | 36108 ft | 411 kts | 320° |
| 2026-04-25 15:06 | 48.29766 | 9.66995 | 36104 ft | 410 kts | 320° |
| 2026-04-25 15:07 | 48.34149 | 9.61508 | 36103 ft | 410 kts | 320° |
| 2026-04-25 15:07 | 48.38505 | 9.55981 | 36098 ft | 410 kts | 319° |
| 2026-04-25 15:08 | 48.42809 | 9.50441 | 36087 ft | 410 kts | 319° |
| 2026-04-25 15:08 | 48.47134 | 9.44869 | 36094 ft | 409 kts | 319° |
| 2026-04-25 15:09 | 48.51458 | 9.39300 | 36089 ft | 408 kts | 319° |
| 2026-04-25 15:09 | 48.57936 | 9.30944 | 36097 ft | 408 kts | 319° |
| 2026-04-25 15:10 | 48.62184 | 9.25350 | 36099 ft | 408 kts | 314° |
| 2026-04-25 15:11 | 48.68035 | 9.16016 | 36087 ft | 408 kts | 313° |
| 2026-04-25 15:11 | 48.71927 | 9.09763 | 36092 ft | 408 kts | 313° |
| 2026-04-25 15:12 | 48.77734 | 9.00411 | 36100 ft | 408 kts | 313° |
| 2026-04-25 15:12 | 48.80335 | 8.96222 | 36101 ft | 408 kts | 313° |
| 2026-04-25 15:13 | 48.87435 | 8.84716 | 36095 ft | 408 kts | 313° |
| 2026-04-25 15:14 | 48.91306 | 8.78420 | 36096 ft | 408 kts | 313° |
| 2026-04-25 15:14 | 48.95157 | 8.72159 | 36095 ft | 408 kts | 313° |
| 2026-04-25 15:15 | 48.99032 | 8.65838 | 36106 ft | 408 kts | 313° |
| 2026-04-25 15:15 | 49.02896 | 8.59506 | 36099 ft | 408 kts | 313° |
| 2026-04-25 15:16 | 49.06763 | 8.53165 | 36102 ft | 408 kts | 313° |
| 2026-04-25 15:16 | 49.12530 | 8.43683 | 36105 ft | 408 kts | 313° |
| 2026-04-25 15:17 | 49.18315 | 8.34140 | 36101 ft | 408 kts | 312° |
| 2026-04-25 15:18 | 49.22158 | 8.27756 | 36104 ft | 408 kts | 312° |
| 2026-04-25 15:18 | 49.27925 | 8.18180 | 36120 ft | 407 kts | 312° |
| 2026-04-25 15:19 | 49.30463 | 8.13950 | 36114 ft | 407 kts | 312° |
| 2026-04-25 15:19 | 49.35559 | 8.05437 | 36110 ft | 407 kts | 312° |
| 2026-04-25 15:20 | 49.39377 | 7.99034 | 36109 ft | 407 kts | 312° |
| 2026-04-25 15:20 | 49.43196 | 7.92614 | 36106 ft | 407 kts | 312° |
| 2026-04-25 15:21 | 49.46984 | 7.86230 | 36106 ft | 407 kts | 312° |
| 2026-04-25 15:21 | 49.50796 | 7.79802 | 36118 ft | 407 kts | 312° |
| 2026-04-25 15:22 | 49.54600 | 7.73371 | 36113 ft | 406 kts | 312° |
| 2026-04-25 15:22 | 49.58400 | 7.66928 | 36114 ft | 406 kts | 312° |
| 2026-04-25 15:23 | 49.62189 | 7.60484 | 36107 ft | 406 kts | 311° |
| 2026-04-25 15:23 | 49.65948 | 7.54070 | 36108 ft | 405 kts | 311° |
| 2026-04-25 15:24 | 49.69728 | 7.47612 | 36127 ft | 405 kts | 311° |
| 2026-04-25 15:24 | 49.72256 | 7.43287 | 36124 ft | 405 kts | 311° |
| 2026-04-25 15:25 | 49.77277 | 7.34673 | 36140 ft | 405 kts | 311° |
| 2026-04-25 15:25 | 49.81013 | 7.28235 | 36137 ft | 404 kts | 311° |
| 2026-04-25 15:26 | 49.84764 | 7.21756 | 36132 ft | 404 kts | 311° |
| 2026-04-25 15:26 | 49.88509 | 7.15278 | 36135 ft | 404 kts | 311° |
| 2026-04-25 15:27 | 49.92253 | 7.08788 | 36150 ft | 403 kts | 311° |
| 2026-04-25 15:28 | 49.97831 | 6.99070 | 36151 ft | 403 kts | 311° |
| 2026-04-25 15:28 | 50.01552 | 6.92561 | 36121 ft | 403 kts | 309° |
| 2026-04-25 15:29 | 50.04556 | 6.85238 | 36112 ft | 402 kts | 299° |
| 2026-04-25 15:29 | 50.07263 | 6.77615 | 36115 ft | 402 kts | 299° |
| 2026-04-25 15:30 | 50.09964 | 6.69993 | 36110 ft | 402 kts | 299° |
| 2026-04-25 15:30 | 50.12645 | 6.62416 | 36111 ft | 402 kts | 299° |
| 2026-04-25 15:31 | 50.15340 | 6.54788 | 36125 ft | 402 kts | 299° |
| 2026-04-25 15:31 | 50.18027 | 6.47144 | 36124 ft | 402 kts | 299° |
| 2026-04-25 15:32 | 50.20824 | 6.39601 | 36126 ft | 402 kts | 301° |
| 2026-04-25 15:32 | 50.23827 | 6.32245 | 36135 ft | 402 kts | 302° |
| 2026-04-25 15:33 | 50.28308 | 6.21255 | 36168 ft | 401 kts | 302° |
| 2026-04-25 15:33 | 50.31252 | 6.13841 | 36167 ft | 401 kts | 301° |
| 2026-04-25 15:34 | 50.34180 | 6.06413 | 36179 ft | 401 kts | 301° |
| 2026-04-25 15:34 | 50.36121 | 6.01493 | 36175 ft | 401 kts | 301° |
| 2026-04-25 15:35 | 50.41491 | 5.87879 | 36181 ft | 401 kts | 301° |
| 2026-04-25 15:36 | 50.45871 | 5.76698 | 36183 ft | 401 kts | 301° |
| 2026-04-25 15:36 | 50.48785 | 5.69232 | 36186 ft | 401 kts | 301° |
| 2026-04-25 15:37 | 50.51675 | 5.61818 | 36199 ft | 401 kts | 301° |
| 2026-04-25 15:37 | 50.54486 | 5.54254 | 36184 ft | 401 kts | 298° |
| 2026-04-25 15:38 | 50.57221 | 5.46610 | 36191 ft | 401 kts | 298° |
| 2026-04-25 15:38 | 50.59956 | 5.38960 | 36194 ft | 401 kts | 298° |
| 2026-04-25 15:39 | 50.62708 | 5.31311 | 36197 ft | 401 kts | 298° |
| 2026-04-25 15:39 | 50.65449 | 5.23715 | 36198 ft | 402 kts | 298° |
| 2026-04-25 15:40 | 50.67294 | 5.18593 | 36200 ft | 402 kts | 298° |
| 2026-04-25 15:40 | 50.70951 | 5.08381 | 36184 ft | 402 kts | 298° |
| 2026-04-25 15:41 | 50.73692 | 5.00678 | 36185 ft | 403 kts | 298° |
| 2026-04-25 15:41 | 50.76423 | 4.93015 | 36181 ft | 403 kts | 298° |
| 2026-04-25 15:42 | 50.79168 | 4.85282 | 36201 ft | 403 kts | 298° |
| 2026-04-25 15:42 | 50.81901 | 4.77539 | 36200 ft | 403 kts | 298° |
| 2026-04-25 15:43 | 50.84167 | 4.71091 | 36195 ft | 403 kts | 298° |
| 2026-04-25 15:43 | 50.86894 | 4.63331 | 36198 ft | 404 kts | 297° |
| 2026-04-25 15:44 | 50.90065 | 4.54275 | 36194 ft | 405 kts | 297° |
| 2026-04-25 15:44 | 50.92415 | 4.47856 | 36192 ft | 405 kts | 300° |
| 2026-04-25 15:45 | 50.95381 | 4.40254 | 36194 ft | 406 kts | 300° |
| 2026-04-25 15:45 | 50.97859 | 4.33931 | 36196 ft | 406 kts | 300° |
| 2026-04-25 15:46 | 51.01296 | 4.24984 | 36197 ft | 406 kts | 300° |
| 2026-04-25 15:46 | 51.04210 | 4.17305 | 36196 ft | 406 kts | 300° |
| 2026-04-25 15:47 | 51.07106 | 4.09668 | 36197 ft | 406 kts | 300° |
| 2026-04-25 15:47 | 51.10019 | 4.01968 | 36194 ft | 406 kts | 299° |
| 2026-04-25 15:48 | 51.12927 | 3.94263 | 36197 ft | 406 kts | 299° |
| 2026-04-25 15:48 | 51.15832 | 3.86552 | 36193 ft | 406 kts | 299° |
| 2026-04-25 15:49 | 51.18730 | 3.78829 | 36190 ft | 406 kts | 299° |
| 2026-04-25 15:49 | 51.21601 | 3.71133 | 36186 ft | 407 kts | 299° |
| 2026-04-25 15:50 | 51.23954 | 3.62983 | 36187 ft | 404 kts | 284° |
| 2026-04-25 15:50 | 51.25151 | 3.54226 | 36192 ft | 404 kts | 281° |
| 2026-04-25 15:51 | 51.26115 | 3.46918 | 36193 ft | 405 kts | 281° |
| 2026-04-25 15:51 | 51.27460 | 3.36689 | 36203 ft | 405 kts | 281° |
| 2026-04-25 15:52 | 51.28599 | 3.27879 | 36208 ft | 406 kts | 281° |
| 2026-04-25 15:52 | 51.29722 | 3.19036 | 36216 ft | 407 kts | 281° |
| 2026-04-25 15:53 | 51.30846 | 3.10173 | 36216 ft | 407 kts | 281° |
| 2026-04-25 15:53 | 51.31971 | 3.01303 | 36219 ft | 408 kts | 281° |
| 2026-04-25 15:54 | 51.33081 | 2.92474 | 36211 ft | 408 kts | 281° |
| 2026-04-25 15:54 | 51.34187 | 2.83555 | 36195 ft | 410 kts | 280° |
| 2026-04-25 15:55 | 51.35299 | 2.74577 | 36187 ft | 413 kts | 280° |
| 2026-04-25 15:55 | 51.36419 | 2.65548 | 36190 ft | 414 kts | 280° |
| 2026-04-25 15:56 | 51.37532 | 2.56490 | 36200 ft | 415 kts | 280° |
| 2026-04-25 15:56 | 51.38637 | 2.47401 | 36204 ft | 416 kts | 280° |
| 2026-04-25 15:57 | 51.39739 | 2.38304 | 36212 ft | 416 kts | 280° |
| 2026-04-25 15:57 | 51.40824 | 2.29255 | 36213 ft | 417 kts | 280° |
| 2026-04-25 15:58 | 51.41924 | 2.20127 | 36217 ft | 418 kts | 280° |
| 2026-04-25 15:58 | 51.43047 | 2.10988 | 36220 ft | 418 kts | 280° |
| 2026-04-25 15:59 | 51.44161 | 2.01840 | 36223 ft | 418 kts | 280° |
| 2026-04-25 15:59 | 51.45254 | 1.92743 | 36227 ft | 418 kts | 280° |
| 2026-04-25 16:00 | 51.46155 | 1.85067 | 36232 ft | 418 kts | 279° |
| 2026-04-25 16:00 | 51.47385 | 1.74403 | 36234 ft | 418 kts | 279° |
| 2026-04-25 16:01 | 51.48434 | 1.65229 | 36234 ft | 418 kts | 279° |
| 2026-04-25 16:01 | 51.49482 | 1.56050 | 36231 ft | 418 kts | 279° |
| 2026-04-25 16:02 | 51.50510 | 1.46932 | 36230 ft | 418 kts | 279° |
| 2026-04-25 16:02 | 51.51540 | 1.37745 | 36223 ft | 419 kts | 279° |
| 2026-04-25 16:03 | 51.52572 | 1.28535 | 36217 ft | 419 kts | 279° |
| 2026-04-25 16:03 | 51.53600 | 1.19301 | 36219 ft | 420 kts | 279° |
| 2026-04-25 16:04 | 51.54169 | 1.09999 | 36219 ft | 420 kts | 269° |
| 2026-04-25 16:04 | 51.54044 | 1.00623 | 36220 ft | 420 kts | 269° |
| 2026-04-25 16:05 | 51.53930 | 0.91242 | 36220 ft | 420 kts | 269° |
| 2026-04-25 16:06 | 51.53740 | 0.77218 | 36221 ft | 421 kts | 269° |
| 2026-04-25 16:06 | 51.53595 | 0.67809 | 36224 ft | 421 kts | 269° |
| 2026-04-25 16:07 | 51.53445 | 0.58405 | 36238 ft | 420 kts | 269° |
| 2026-04-25 16:07 | 51.53292 | 0.49049 | 36243 ft | 418 kts | 269° |
| 2026-04-25 16:08 | 51.53131 | 0.39737 | 36240 ft | 416 kts | 269° |
| 2026-04-25 16:08 | 51.53059 | 0.30471 | 35732 ft | 412 kts | 270° |
| 2026-04-25 16:08 | 51.53088 | 0.25951 | 35303 ft | 409 kts | 271° |
| 2026-04-25 16:09 | 51.53132 | 0.21408 | 34883 ft | 406 kts | 271° |
| 2026-04-25 16:09 | 51.53170 | 0.16889 | 34464 ft | 403 kts | 271° |
| 2026-04-25 16:09 | 51.53195 | 0.12416 | 34028 ft | 400 kts | 270° |
| 2026-04-25 16:09 | 51.53210 | 0.07960 | 33545 ft | 397 kts | 270° |
| 2026-04-25 16:10 | 51.53216 | 0.03548 | 33079 ft | 394 kts | 270° |
| 2026-04-25 16:10 | 51.53215 | -0.00836 | 32647 ft | 391 kts | 270° |
| 2026-04-25 16:10 | 51.53211 | -0.05180 | 32243 ft | 387 kts | 270° |
| 2026-04-25 16:10 | 51.53207 | -0.09479 | 31798 ft | 384 kts | 270° |
| 2026-04-25 16:11 | 51.53202 | -0.13746 | 31375 ft | 381 kts | 270° |
| 2026-04-25 16:11 | 51.53195 | -0.17985 | 30944 ft | 378 kts | 270° |
| 2026-04-25 16:11 | 51.53187 | -0.22190 | 30535 ft | 375 kts | 270° |
| 2026-04-25 16:11 | 51.53182 | -0.26303 | 30116 ft | 373 kts | 270° |
| 2026-04-25 16:12 | 51.53178 | -0.30451 | 29629 ft | 370 kts | 270° |
| 2026-04-25 16:12 | 51.53172 | -0.34568 | 29157 ft | 367 kts | 270° |
| 2026-04-25 16:12 | 51.53163 | -0.38646 | 28695 ft | 364 kts | 270° |
| 2026-04-25 16:12 | 51.53156 | -0.41340 | 28394 ft | 363 kts | 270° |
| 2026-04-25 16:13 | 51.53137 | -0.46731 | 27795 ft | 359 kts | 270° |
| 2026-04-25 16:13 | 51.53122 | -0.50734 | 27363 ft | 357 kts | 270° |
| 2026-04-25 16:13 | 51.53111 | -0.54702 | 26922 ft | 355 kts | 270° |
| 2026-04-25 16:13 | 51.53100 | -0.58645 | 26499 ft | 352 kts | 270° |
| 2026-04-25 16:14 | 51.53084 | -0.62570 | 26081 ft | 350 kts | 270° |
| 2026-04-25 16:14 | 51.53065 | -0.66410 | 25678 ft | 348 kts | 270° |
| 2026-04-25 16:14 | 51.53041 | -0.70286 | 25276 ft | 346 kts | 270° |
| 2026-04-25 16:14 | 51.53018 | -0.74135 | 24877 ft | 344 kts | 270° |
| 2026-04-25 16:15 | 51.52992 | -0.77965 | 24478 ft | 342 kts | 270° |
| 2026-04-25 16:15 | 51.52967 | -0.81768 | 24095 ft | 340 kts | 270° |
| 2026-04-25 16:15 | 51.52941 | -0.85557 | 23711 ft | 338 kts | 270° |
| 2026-04-25 16:15 | 51.52915 | -0.89324 | 23263 ft | 336 kts | 269° |
| 2026-04-25 16:16 | 51.52886 | -0.93062 | 22825 ft | 334 kts | 269° |
| 2026-04-25 16:16 | 51.52857 | -0.96788 | 22411 ft | 332 kts | 270° |
| 2026-04-25 16:16 | 51.52829 | -1.00489 | 22175 ft | 331 kts | 270° |
| 2026-04-25 16:16 | 51.52804 | -1.04145 | 22192 ft | 332 kts | 270° |
| 2026-04-25 16:17 | 51.52775 | -1.07857 | 22193 ft | 333 kts | 270° |
| 2026-04-25 16:17 | 51.52742 | -1.11571 | 22193 ft | 333 kts | 270° |
| 2026-04-25 16:17 | 51.52721 | -1.15292 | 22191 ft | 333 kts | 273° |
| 2026-04-25 16:17 | 51.53008 | -1.18968 | 22193 ft | 332 kts | 281° |
| 2026-04-25 16:18 | 51.53447 | -1.22614 | 22192 ft | 332 kts | 281° |
| 2026-04-25 16:18 | 51.53595 | -1.23845 | 22149 ft | 331 kts | 281° |
| 2026-04-25 16:18 | 51.54306 | -1.29844 | 21458 ft | 328 kts | 281° |
| 2026-04-25 16:18 | 51.54723 | -1.33388 | 21038 ft | 326 kts | 281° |
| 2026-04-25 16:19 | 51.55143 | -1.36959 | 20638 ft | 325 kts | 281° |
| 2026-04-25 16:19 | 51.55559 | -1.40511 | 20235 ft | 323 kts | 281° |
| 2026-04-25 16:19 | 51.55972 | -1.44052 | 19837 ft | 322 kts | 281° |
| 2026-04-25 16:20 | 51.56792 | -1.51081 | 19106 ft | 319 kts | 281° |
| 2026-04-25 16:20 | 51.57196 | -1.54580 | 18744 ft | 318 kts | 281° |
| 2026-04-25 16:20 | 51.57999 | -1.61541 | 17987 ft | 315 kts | 281° |
| 2026-04-25 16:21 | 51.58392 | -1.64954 | 17605 ft | 314 kts | 280° |
| 2026-04-25 16:21 | 51.58734 | -1.68406 | 17256 ft | 312 kts | 278° |
| 2026-04-25 16:21 | 51.59003 | -1.71864 | 16900 ft | 310 kts | 277° |
| 2026-04-25 16:21 | 51.59238 | -1.75305 | 16552 ft | 309 kts | 276° |
| 2026-04-25 16:22 | 51.59462 | -1.78729 | 16213 ft | 307 kts | 276° |
| 2026-04-25 16:22 | 51.59689 | -1.82141 | 15885 ft | 306 kts | 276° |
| 2026-04-25 16:22 | 51.59898 | -1.85533 | 15557 ft | 304 kts | 271° |
| 2026-04-25 16:22 | 51.59686 | -1.88907 | 15246 ft | 304 kts | 261° |
| 2026-04-25 16:23 | 51.59320 | -1.92249 | 14920 ft | 303 kts | 261° |
| 2026-04-25 16:23 | 51.58949 | -1.95571 | 14606 ft | 301 kts | 261° |
| 2026-04-25 16:23 | 51.58584 | -1.98882 | 14298 ft | 300 kts | 261° |
| 2026-04-25 16:23 | 51.58220 | -2.02184 | 13984 ft | 299 kts | 261° |
| 2026-04-25 16:24 | 51.57862 | -2.05423 | 13649 ft | 298 kts | 261° |
| 2026-04-25 16:24 | 51.57501 | -2.08698 | 13295 ft | 297 kts | 261° |
| 2026-04-25 16:24 | 51.57141 | -2.11959 | 12947 ft | 296 kts | 261° |
| 2026-04-25 16:24 | 51.56782 | -2.15203 | 12590 ft | 295 kts | 261° |
| 2026-04-25 16:25 | 51.56425 | -2.18442 | 12244 ft | 293 kts | 261° |
| 2026-04-25 16:25 | 51.56189 | -2.20574 | 12004 ft | 293 kts | 261° |
| 2026-04-25 16:25 | 51.55715 | -2.24879 | 11546 ft | 291 kts | 261° |
| 2026-04-25 16:25 | 51.55362 | -2.28077 | 11188 ft | 290 kts | 261° |
| 2026-04-25 16:26 | 51.55012 | -2.31263 | 10825 ft | 289 kts | 260° |
| 2026-04-25 16:26 | 51.54663 | -2.34443 | 10484 ft | 288 kts | 260° |
| 2026-04-25 16:26 | 51.54322 | -2.37561 | 10152 ft | 286 kts | 260° |
| 2026-04-25 16:26 | 51.53979 | -2.40703 | 9761 ft | 285 kts | 260° |
| 2026-04-25 16:27 | 51.53641 | -2.43827 | 9387 ft | 283 kts | 261° |
| 2026-04-25 16:27 | 51.53303 | -2.46935 | 9004 ft | 282 kts | 261° |
| 2026-04-25 16:27 | 51.52963 | -2.50025 | 8601 ft | 280 kts | 261° |
| 2026-04-25 16:27 | 51.52621 | -2.53099 | 8221 ft | 279 kts | 261° |
| 2026-04-25 16:28 | 51.52277 | -2.56160 | 7827 ft | 278 kts | 260° |
| 2026-04-25 16:28 | 51.51929 | -2.59210 | 7451 ft | 277 kts | 260° |
| 2026-04-25 16:28 | 51.51578 | -2.62248 | 7109 ft | 276 kts | 260° |
| 2026-04-25 16:28 | 51.51225 | -2.65270 | 6742 ft | 275 kts | 260° |
| 2026-04-25 16:29 | 51.50870 | -2.68283 | 6365 ft | 274 kts | 260° |
| 2026-04-25 16:29 | 51.50521 | -2.71242 | 5984 ft | 273 kts | 260° |
| 2026-04-25 16:29 | 51.50175 | -2.74218 | 5669 ft | 268 kts | 260° |
| 2026-04-25 16:29 | 51.49842 | -2.77096 | 5537 ft | 257 kts | 260° |
| 2026-04-25 16:30 | 51.49524 | -2.79851 | 5410 ft | 246 kts | 260° |
| 2026-04-25 16:30 | 51.49217 | -2.82506 | 5236 ft | 239 kts | 260° |
| 2026-04-25 16:30 | 51.48917 | -2.85112 | 4941 ft | 237 kts | 260° |
| 2026-04-25 16:30 | 51.48618 | -2.87707 | 4626 ft | 236 kts | 260° |
| 2026-04-25 16:31 | 51.48059 | -2.90144 | 4320 ft | 233 kts | 239° |
| 2026-04-25 16:31 | 51.47170 | -2.92316 | 4022 ft | 232 kts | 236° |
| 2026-04-25 16:31 | 51.46247 | -2.94433 | 3702 ft | 231 kts | 235° |
| 2026-04-25 16:31 | 51.45343 | -2.96505 | 3416 ft | 229 kts | 233° |
| 2026-04-25 16:32 | 51.44162 | -2.98140 | 3122 ft | 226 kts | 203° |
| 2026-04-25 16:32 | 51.42629 | -2.98618 | 2795 ft | 226 kts | 183° |
| 2026-04-25 16:32 | 51.41078 | -2.98670 | 2648 ft | 218 kts | 180° |
| 2026-04-25 16:32 | 51.39602 | -2.98548 | 2548 ft | 208 kts | 164° |
| 2026-04-25 16:33 | 51.38428 | -2.97360 | 2507 ft | 197 kts | 129° |
| 2026-04-25 16:33 | 51.37669 | -2.95579 | 2510 ft | 192 kts | 117° |
| 2026-04-25 16:33 | 51.37390 | -2.93539 | 2536 ft | 190 kts | 88° |
| 2026-04-25 16:33 | 51.37476 | -2.91431 | 2518 ft | 189 kts | 86° |
| 2026-04-25 16:34 | 51.37568 | -2.89363 | 2498 ft | 190 kts | 86° |
| 2026-04-25 16:34 | 51.37655 | -2.87269 | 2329 ft | 185 kts | 86° |
| 2026-04-25 16:34 | 51.37736 | -2.85278 | 2114 ft | 174 kts | 86° |
| 2026-04-25 16:34 | 51.37812 | -2.83401 | 1914 ft | 167 kts | 86° |
| 2026-04-25 16:35 | 51.37883 | -2.81619 | 1678 ft | 153 kts | 86° |
| 2026-04-25 16:35 | 51.37949 | -2.79960 | 1470 ft | 147 kts | 86° |
| 2026-04-25 16:35 | 51.38014 | -2.78337 | 1277 ft | 146 kts | 85° |
| 2026-04-25 16:35 | 51.38078 | -2.76722 | 1083 ft | 145 kts | 85° |
| 2026-04-25 16:36 | 51.38141 | -2.75107 | 889 ft | 145 kts | 84° |
| 2026-04-25 16:36 | 51.38162 | -2.74582 | 828 ft | 146 kts | 84° |
| 2026-04-25 16:36 | 51.38267 | -2.71994 | 631 ft | 104 kts | 87° |
| 2026-04-25 16:36 | 51.38295 | -2.71240 | 619 ft | 54 kts | 85° |
| 2026-04-25 16:37 | 51.38312 | -2.70832 | 607 ft | 16 kts | 86° |
| 2026-04-25 16:37 | 51.38388 | -2.70734 | 613 ft | 15 kts | 19° |
| 2026-04-25 16:37 | 51.38465 | -2.70690 | 612 ft | 8 kts | 21° |
| 2026-04-25 16:37 | 51.38480 | -2.70641 | 618 ft | 3 kts | 54° |
| 2026-04-25 16:38 | 51.38501 | -2.70632 | 618 ft | 4 kts | 7° |
| 2026-04-25 16:38 | 51.38509 | -2.70631 | 617 ft | 1 kts | 3° |
| 2026-04-25 16:38 | 51.38522 | -2.70633 | 612 ft | 3 kts | 354° |
| 2026-04-25 16:38 | 51.38535 | -2.70670 | 615 ft | 5 kts | 274° |
| 2026-04-25 16:39 | 51.38535 | -2.70694 | 615 ft | 0 kts | 267° |
| 2026-04-25 16:39 | 51.38534 | -2.70698 | 615 ft | 2 kts | 267° |
| 2026-04-25 16:39 | 51.38534 | -2.70707 | 614 ft | 0 kts | 267° |